createdAt,value
2019-02-18T00:00:10.030Z,4.18
2019-02-18T00:01:10.005Z,4.16
2019-02-18T00:02:10.733Z,4.14
2019-02-18T00:03:09.959Z,4.23
2019-02-18T00:04:09.933Z,4.18
2019-02-18T00:05:09.909Z,4.14
2019-02-18T00:06:09.885Z,4.18
2019-02-18T00:07:14.583Z,4.15
2019-02-18T00:08:09.839Z,4.14
2019-02-18T00:09:09.811Z,4.18
2019-02-18T00:10:09.791Z,4.20
2019-02-18T00:11:09.767Z,4.26
2019-02-18T00:12:09.753Z,4.29
2019-02-18T00:13:09.719Z,4.24
2019-02-18T00:14:09.753Z,4.34
2019-02-18T00:15:09.672Z,4.26
2019-02-18T00:16:09.649Z,4.29
2019-02-18T00:17:09.621Z,4.32
2019-02-18T00:18:09.598Z,4.27
2019-02-18T00:19:09.576Z,4.33
2019-02-18T00:20:09.551Z,4.24
2019-02-18T00:21:09.528Z,4.24
2019-02-18T00:22:09.502Z,4.32
2019-02-18T00:23:09.480Z,4.16
2019-02-18T00:24:09.453Z,4.16
2019-02-18T00:25:09.425Z,4.22
2019-02-18T00:26:09.405Z,4.14
2019-02-18T00:27:09.381Z,4.18
2019-02-18T00:28:09.355Z,4.14
2019-02-18T00:29:09.333Z,4.08
2019-02-18T00:30:09.307Z,4.14
2019-02-18T00:31:09.283Z,4.15
2019-02-18T00:32:09.266Z,4.08
2019-02-18T00:33:09.239Z,4.02
2019-02-18T00:34:09.216Z,4.05
2019-02-18T00:35:09.192Z,4.06
2019-02-18T00:36:09.163Z,4.09
2019-02-18T00:37:09.143Z,4.11
2019-02-18T00:38:09.117Z,4.14
2019-02-18T00:39:09.091Z,4.14
2019-02-18T00:40:09.067Z,4.14
2019-02-18T00:41:09.041Z,4.12
2019-02-18T00:42:09.023Z,4.09
2019-02-18T00:43:08.994Z,4.08
2019-02-18T00:44:08.975Z,4.05
2019-02-18T00:45:08.949Z,4.04
2019-02-18T00:46:08.928Z,3.96
2019-02-18T00:47:08.897Z,3.98
2019-02-18T00:48:08.878Z,4.00
2019-02-18T00:49:08.858Z,3.88
2019-02-18T00:50:08.829Z,3.97
2019-02-18T00:51:08.822Z,3.97
2019-02-18T00:52:08.782Z,3.93
2019-02-18T00:53:08.762Z,3.87
2019-02-18T00:54:08.732Z,3.84
2019-02-18T00:55:08.715Z,3.91
2019-02-18T00:56:08.695Z,3.79
2019-02-18T00:57:08.656Z,3.90
2019-02-18T00:58:08.633Z,3.93
2019-02-18T00:59:08.613Z,3.87
2019-02-18T01:00:08.587Z,3.84
2019-02-18T01:01:08.562Z,3.78
2019-02-18T01:02:08.543Z,3.91
2019-02-18T01:03:08.517Z,3.86
2019-02-18T01:04:08.492Z,3.84
2019-02-18T01:05:08.471Z,3.88
2019-02-18T01:06:08.441Z,3.80
2019-02-18T01:07:08.415Z,3.75
2019-02-18T01:08:08.394Z,3.76
2019-02-18T01:09:08.375Z,3.83
2019-02-18T01:10:08.354Z,3.84
2019-02-18T01:11:08.319Z,3.86
2019-02-18T01:12:08.294Z,3.84
2019-02-18T01:13:08.341Z,3.84
2019-02-18T01:14:08.253Z,3.78
2019-02-18T01:15:08.267Z,3.83
2019-02-18T01:16:08.200Z,3.76
2019-02-18T01:17:08.183Z,3.79
2019-02-18T01:18:08.154Z,3.80
2019-02-18T01:19:08.132Z,3.75
2019-02-18T01:20:08.108Z,3.69
2019-02-18T01:21:08.085Z,3.68
2019-02-18T01:22:08.055Z,3.66
2019-02-18T01:23:08.038Z,3.75
2019-02-18T01:24:08.004Z,3.68
2019-02-18T01:25:07.986Z,3.65
2019-02-18T01:26:07.999Z,3.65
2019-02-18T01:27:07.934Z,3.65
2019-02-18T01:28:07.912Z,3.66
2019-02-18T01:29:07.891Z,3.61
2019-02-18T01:30:07.871Z,3.61
2019-02-18T01:31:07.838Z,3.54
2019-02-18T01:32:07.817Z,3.52
2019-02-18T01:33:07.788Z,3.45
2019-02-18T01:34:07.775Z,3.48
2019-02-18T01:35:07.748Z,3.45
2019-02-18T01:36:07.716Z,3.48
2019-02-18T01:37:07.696Z,3.50
2019-02-18T01:38:07.670Z,3.40
2019-02-18T01:39:07.681Z,3.47
2019-02-18T01:40:07.620Z,3.39
2019-02-18T01:41:07.602Z,3.39
2019-02-18T01:42:07.576Z,3.43
2019-02-18T01:43:07.550Z,3.32
2019-02-18T01:44:07.528Z,3.35
2019-02-18T01:45:07.501Z,3.45
2019-02-18T01:46:07.476Z,3.36
2019-02-18T01:47:07.458Z,3.42
2019-02-18T01:48:07.424Z,3.43
2019-02-18T01:49:07.401Z,3.42
2019-02-18T01:50:07.380Z,3.36
2019-02-18T01:51:07.360Z,3.43
2019-02-18T01:52:07.330Z,3.36
2019-02-18T01:54:07.282Z,3.36
2019-02-18T01:55:07.260Z,3.39
2019-02-18T01:56:07.236Z,3.28
2019-02-18T01:57:07.212Z,3.32
2019-02-18T01:58:07.187Z,3.35
2019-02-18T01:59:07.166Z,3.29
2019-02-18T02:00:07.142Z,3.21
2019-02-18T02:01:07.117Z,3.15
2019-02-18T02:02:07.089Z,3.05
2019-02-18T02:03:07.068Z,3.13
2019-02-18T02:04:07.042Z,3.03
2019-02-18T02:05:07.018Z,3.06
2019-02-18T02:06:06.997Z,3.06
2019-02-18T02:07:06.969Z,2.99
2019-02-18T02:08:06.944Z,2.97
2019-02-18T02:09:06.923Z,2.97
2019-02-18T02:10:06.947Z,2.95
2019-02-18T02:11:06.870Z,2.95
2019-02-18T02:12:06.849Z,2.96
2019-02-18T02:13:06.823Z,2.99
2019-02-18T02:14:06.804Z,3.02
2019-02-18T02:15:06.774Z,3.00
2019-02-18T02:16:06.748Z,3.05
2019-02-18T02:17:06.723Z,3.06
2019-02-18T02:18:06.708Z,3.08
2019-02-18T02:19:06.678Z,3.00
2019-02-18T02:20:06.657Z,3.03
2019-02-18T02:21:06.629Z,3.05
2019-02-18T02:22:06.603Z,3.08
2019-02-18T02:23:06.583Z,3.06
2019-02-18T02:24:06.566Z,3.06
2019-02-18T02:25:06.537Z,3.03
2019-02-18T02:26:06.510Z,3.03
2019-02-18T02:27:06.486Z,2.97
2019-02-18T02:28:06.455Z,2.97
2019-02-18T02:29:06.434Z,2.97
2019-02-18T02:30:06.411Z,2.97
2019-02-18T02:31:06.382Z,2.96
2019-02-18T02:32:06.359Z,2.93
2019-02-18T02:33:06.337Z,2.96
2019-02-18T02:34:06.311Z,2.95
2019-02-18T02:35:06.287Z,2.92
2019-02-18T02:36:06.270Z,3.00
2019-02-18T02:37:06.241Z,2.93
2019-02-18T02:38:07.973Z,2.96
2019-02-18T02:39:06.192Z,2.93
2019-02-18T02:40:06.173Z,2.92
2019-02-18T02:41:06.150Z,2.87
2019-02-18T02:42:06.130Z,2.93
2019-02-18T02:43:06.091Z,2.95
2019-02-18T02:44:06.071Z,2.96
2019-02-18T02:45:06.047Z,2.92
2019-02-18T02:46:06.027Z,2.82
2019-02-18T02:47:05.997Z,2.89
2019-02-18T02:48:05.975Z,2.95
2019-02-18T02:49:05.956Z,2.89
2019-02-18T02:50:05.942Z,2.85
2019-02-18T02:51:05.900Z,2.87
2019-02-18T02:52:05.873Z,2.93
2019-02-18T02:53:06.160Z,2.89
2019-02-18T02:54:05.826Z,2.90
2019-02-18T02:55:05.802Z,2.87
2019-02-18T02:56:05.781Z,2.85
2019-02-18T02:57:05.753Z,2.78
2019-02-18T02:58:05.729Z,2.72
2019-02-18T02:59:05.709Z,2.79
2019-02-18T03:00:05.685Z,2.69
2019-02-18T03:01:05.659Z,2.63
2019-02-18T03:02:05.629Z,2.74
2019-02-18T03:03:05.610Z,2.74
2019-02-18T03:04:05.583Z,2.64
2019-02-18T03:05:05.562Z,2.67
2019-02-18T03:06:05.533Z,2.64
2019-02-18T03:07:05.509Z,2.59
2019-02-18T03:08:05.485Z,2.59
2019-02-18T03:09:05.459Z,2.57
2019-02-18T03:10:05.431Z,2.60
2019-02-18T03:11:05.409Z,2.59
2019-02-18T03:12:05.389Z,2.57
2019-02-18T03:13:05.364Z,2.49
2019-02-18T03:14:05.346Z,2.43
2019-02-18T03:15:05.313Z,2.39
2019-02-18T03:16:05.288Z,2.48
2019-02-18T03:17:05.264Z,2.45
2019-02-18T03:18:05.242Z,2.42
2019-02-18T03:19:05.215Z,2.45
2019-02-18T03:20:05.200Z,2.45
2019-02-18T03:21:05.215Z,2.42
2019-02-18T03:22:05.131Z,2.38
2019-02-18T03:23:05.115Z,2.27
2019-02-18T03:24:05.092Z,2.28
2019-02-18T03:25:05.069Z,2.31
2019-02-18T03:26:05.045Z,2.28
2019-02-18T03:27:05.014Z,2.25
2019-02-18T03:28:04.995Z,2.31
2019-02-18T03:29:04.971Z,2.38
2019-02-18T03:30:04.996Z,2.31
2019-02-18T03:31:04.931Z,2.28
2019-02-18T03:32:04.901Z,2.31
2019-02-18T03:33:04.873Z,2.21
2019-02-18T03:34:04.851Z,2.25
2019-02-18T03:35:04.823Z,2.30
2019-02-18T03:36:04.865Z,2.27
2019-02-18T03:37:04.776Z,2.30
2019-02-18T03:38:04.750Z,2.24
2019-02-18T03:39:04.722Z,2.30
2019-02-18T03:40:04.704Z,2.25
2019-02-18T03:41:04.675Z,2.34
2019-02-18T03:42:04.653Z,2.28
2019-02-18T03:43:04.625Z,2.34
2019-02-18T03:44:04.607Z,2.31
2019-02-18T03:45:04.580Z,2.38
2019-02-18T03:46:04.553Z,2.31
2019-02-18T03:47:04.534Z,2.31
2019-02-18T03:48:04.517Z,2.25
2019-02-18T03:49:04.482Z,2.36
2019-02-18T03:50:04.454Z,2.30
2019-02-18T03:51:04.428Z,2.34
2019-02-18T03:52:04.404Z,2.25
2019-02-18T03:53:04.384Z,2.30
2019-02-18T03:54:04.356Z,2.39
2019-02-18T03:55:04.336Z,2.38
2019-02-18T03:56:04.316Z,2.30
2019-02-18T03:57:04.290Z,2.35
2019-02-18T03:58:04.258Z,2.31
2019-02-18T03:59:04.235Z,2.25
2019-02-18T04:00:04.249Z,2.23
2019-02-18T04:01:04.186Z,2.27
2019-02-18T04:02:04.164Z,2.31
2019-02-18T04:03:04.136Z,2.25
2019-02-18T04:04:04.110Z,2.25
2019-02-18T04:05:04.090Z,2.25
2019-02-18T04:06:04.059Z,2.28
2019-02-18T04:07:04.036Z,2.25
2019-02-18T04:08:04.016Z,2.23
2019-02-18T04:09:03.988Z,2.31
2019-02-18T04:10:03.962Z,2.24
2019-02-18T04:11:03.941Z,2.18
2019-02-18T04:12:03.911Z,2.34
2019-02-18T04:13:03.892Z,2.28
2019-02-18T04:14:03.862Z,2.21
2019-02-18T04:15:03.842Z,2.25
2019-02-18T04:16:03.814Z,2.34
2019-02-18T04:17:03.795Z,2.25
2019-02-18T04:18:03.768Z,2.20
2019-02-18T04:19:03.744Z,2.25
2019-02-18T04:20:03.717Z,2.18
2019-02-18T04:21:03.692Z,2.18
2019-02-18T04:22:03.668Z,2.23
2019-02-18T04:23:03.643Z,2.05
2019-02-18T04:24:03.642Z,2.07
2019-02-18T04:25:03.596Z,2.06
2019-02-18T04:26:03.570Z,2.09
2019-02-18T04:27:03.551Z,2.09
2019-02-18T04:28:03.520Z,2.06
2019-02-18T04:29:03.498Z,2.07
2019-02-18T04:30:03.476Z,2.07
2019-02-18T04:31:03.447Z,2.03
2019-02-18T04:32:03.426Z,2.14
2019-02-18T04:33:03.397Z,2.23
2019-02-18T04:34:03.377Z,2.06
2019-02-18T04:35:03.347Z,2.14
2019-02-18T04:36:03.321Z,2.12
2019-02-18T04:37:03.299Z,2.23
2019-02-18T04:38:03.274Z,2.21
2019-02-18T04:39:03.257Z,2.10
2019-02-18T04:40:03.232Z,2.07
2019-02-18T04:41:03.201Z,2.06
2019-02-18T04:42:03.178Z,2.06
2019-02-18T04:43:03.151Z,2.07
2019-02-18T04:44:03.131Z,2.12
2019-02-18T04:45:03.106Z,2.18
2019-02-18T04:46:03.077Z,2.21
2019-02-18T04:47:03.052Z,2.05
2019-02-18T04:48:03.026Z,2.10
2019-02-18T04:49:03.014Z,2.06
2019-02-18T04:50:02.981Z,1.91
2019-02-18T04:51:02.961Z,1.98
2019-02-18T04:52:02.931Z,1.91
2019-02-18T04:53:02.908Z,1.91
2019-02-18T04:54:02.879Z,1.84
2019-02-18T04:55:02.854Z,1.76
2019-02-18T04:56:02.848Z,1.66
2019-02-18T04:57:02.805Z,1.69
2019-02-18T04:58:05.834Z,1.72
2019-02-18T04:59:02.764Z,1.69
2019-02-18T05:00:02.790Z,1.60
2019-02-18T05:01:03.052Z,1.69
2019-02-18T05:02:02.688Z,1.65
2019-02-18T05:03:02.654Z,1.69
2019-02-18T05:04:02.631Z,1.72
2019-02-18T05:05:02.609Z,1.73
2019-02-18T05:06:02.584Z,1.70
2019-02-18T05:07:02.574Z,1.72
2019-02-18T05:08:02.561Z,1.69
2019-02-18T05:09:05.358Z,1.72
2019-02-18T05:10:02.482Z,1.76
2019-02-18T05:11:02.465Z,1.70
2019-02-18T05:12:02.433Z,1.62
2019-02-18T05:13:02.414Z,1.72
2019-02-18T05:14:02.385Z,1.59
2019-02-18T05:15:02.359Z,1.69
2019-02-18T05:16:02.339Z,1.72
2019-02-18T05:17:02.311Z,1.60
2019-02-18T05:18:02.360Z,1.69
2019-02-18T05:19:02.264Z,1.68
2019-02-18T05:20:02.242Z,1.70
2019-02-18T05:21:02.214Z,1.72
2019-02-18T05:22:02.214Z,1.76
2019-02-18T05:23:02.157Z,1.73
2019-02-18T05:24:02.139Z,1.68
2019-02-18T05:25:02.110Z,1.68
2019-02-18T05:26:02.089Z,1.72
2019-02-18T05:27:02.064Z,1.70
2019-02-18T05:28:02.043Z,1.69
2019-02-18T05:29:02.017Z,1.72
2019-02-18T05:30:01.985Z,1.70
2019-02-18T05:31:01.972Z,1.60
2019-02-18T05:32:01.936Z,1.62
2019-02-18T05:33:01.914Z,1.63
2019-02-18T05:34:01.889Z,1.50
2019-02-18T05:35:01.865Z,1.60
2019-02-18T05:36:01.840Z,1.65
2019-02-18T05:37:01.820Z,1.59
2019-02-18T05:38:01.791Z,1.58
2019-02-18T05:39:01.768Z,1.47
2019-02-18T05:40:01.747Z,1.51
2019-02-18T05:41:01.716Z,1.48
2019-02-18T05:42:01.702Z,1.45
2019-02-18T05:43:01.665Z,1.37
2019-02-18T05:44:01.643Z,1.30
2019-02-18T05:45:01.620Z,1.26
2019-02-18T05:46:01.593Z,1.30
2019-02-18T05:47:01.565Z,1.22
2019-02-18T05:48:01.545Z,1.27
2019-02-18T05:49:01.516Z,1.20
2019-02-18T05:50:01.498Z,1.27
2019-02-18T05:51:01.473Z,1.27
2019-02-18T05:52:01.448Z,1.33
2019-02-18T05:53:01.421Z,1.34
2019-02-18T05:54:01.398Z,1.30
2019-02-18T05:55:01.436Z,1.34
2019-02-18T05:56:01.356Z,1.54
2019-02-18T05:57:01.326Z,1.51
2019-02-18T05:58:01.295Z,1.60
2019-02-18T05:59:01.281Z,1.66
2019-02-18T06:00:01.246Z,1.55
2019-02-18T06:01:01.225Z,1.59
2019-02-18T06:02:01.200Z,1.52
2019-02-18T06:03:01.173Z,1.50
2019-02-18T06:04:01.145Z,1.48
2019-02-18T06:05:01.122Z,1.44
2019-02-18T06:06:01.096Z,1.44
2019-02-18T06:07:01.075Z,1.42
2019-02-18T06:08:01.052Z,1.40
2019-02-18T06:09:01.025Z,1.41
2019-02-18T06:10:00.996Z,1.33
2019-02-18T06:11:00.973Z,1.37
2019-02-18T06:12:00.946Z,1.32
2019-02-18T06:13:00.923Z,1.36
2019-02-18T06:14:00.897Z,1.33
2019-02-18T06:15:00.871Z,1.29
2019-02-18T06:16:00.855Z,1.24
2019-02-18T06:17:02.742Z,1.36
2019-02-18T06:18:00.796Z,1.30
2019-02-18T06:19:00.789Z,1.26
2019-02-18T06:20:00.746Z,1.32
2019-02-18T06:21:00.724Z,1.37
2019-02-18T06:22:00.696Z,1.36
2019-02-18T06:23:00.668Z,1.29
2019-02-18T06:24:00.651Z,1.27
2019-02-18T06:25:00.627Z,1.30
2019-02-18T06:26:00.608Z,1.33
2019-02-18T06:27:00.576Z,1.34
2019-02-18T06:28:00.552Z,1.34
2019-02-18T06:29:00.520Z,1.36
2019-02-18T06:30:00.499Z,1.36
2019-02-18T06:31:00.472Z,1.48
2019-02-18T06:32:00.454Z,1.42
2019-02-18T06:33:01.212Z,1.59
2019-02-18T06:34:00.396Z,1.54
2019-02-18T06:35:00.370Z,1.55
2019-02-18T06:36:00.348Z,1.50
2019-02-18T06:37:00.323Z,1.54
2019-02-18T06:38:00.307Z,1.60
2019-02-18T06:39:00.282Z,1.65
2019-02-18T06:40:00.351Z,1.51
2019-02-18T06:41:00.233Z,1.58
2019-02-18T06:42:00.200Z,1.48
2019-02-18T06:43:00.176Z,1.55
2019-02-18T06:44:00.148Z,1.54
2019-02-18T06:45:00.291Z,1.47
2019-02-18T06:46:00.100Z,1.55
2019-02-18T06:47:00.069Z,1.63
2019-02-18T06:48:00.049Z,1.54
2019-02-18T06:49:00.022Z,1.51
2019-02-18T06:49:59.997Z,1.60
2019-02-18T06:50:59.975Z,1.47
2019-02-18T06:51:59.950Z,1.52
2019-02-18T06:52:59.930Z,1.51
2019-02-18T06:53:59.900Z,1.48
2019-02-18T06:54:59.876Z,1.50
2019-02-18T06:55:59.856Z,1.50
2019-02-18T06:56:59.824Z,1.48
2019-02-18T06:57:59.802Z,1.47
2019-02-18T06:58:59.774Z,1.52
2019-02-18T06:59:59.756Z,1.42
2019-02-18T07:00:59.731Z,1.59
2019-02-18T07:01:59.705Z,1.51
2019-02-18T07:02:59.679Z,1.59
2019-02-18T07:03:59.649Z,1.66
2019-02-18T07:04:59.632Z,1.77
2019-02-18T07:05:59.600Z,1.73
2019-02-18T07:06:59.583Z,1.73
2019-02-18T07:07:59.550Z,1.83
2019-02-18T07:08:59.528Z,1.79
2019-02-18T07:09:59.502Z,1.81
2019-02-18T07:10:59.475Z,1.81
2019-02-18T07:11:59.462Z,1.83
2019-02-18T07:12:59.426Z,1.88
2019-02-18T07:13:59.402Z,1.95
2019-02-18T07:14:59.381Z,1.93
2019-02-18T07:15:59.353Z,2.03
2019-02-18T07:16:59.331Z,1.98
2019-02-18T07:17:59.302Z,2.00
2019-02-18T07:18:59.278Z,1.98
2019-02-18T07:19:59.257Z,2.00
2019-02-18T07:20:59.230Z,2.05
2019-02-18T07:21:59.201Z,2.03
2019-02-18T07:22:59.177Z,2.07
2019-02-18T07:23:59.156Z,2.17
2019-02-18T07:24:59.129Z,2.14
2019-02-18T07:25:59.105Z,2.25
2019-02-18T07:26:59.080Z,2.20
2019-02-18T07:27:59.055Z,2.28
2019-02-18T07:28:59.031Z,2.31
2019-02-18T07:29:59.010Z,2.38
2019-02-18T07:30:58.989Z,2.43
2019-02-18T07:31:58.957Z,2.53
2019-02-18T07:32:58.933Z,2.56
2019-02-18T07:33:58.915Z,2.54
2019-02-18T07:34:58.885Z,2.59
2019-02-18T07:35:58.869Z,2.71
2019-02-18T07:36:58.837Z,2.69
2019-02-18T07:37:58.820Z,2.72
2019-02-18T07:38:58.786Z,2.75
2019-02-18T07:40:01.480Z,2.81
2019-02-18T07:40:58.739Z,2.90
2019-02-18T07:41:58.719Z,2.84
2019-02-18T07:42:58.692Z,2.93
2019-02-18T07:43:58.664Z,2.97
2019-02-18T07:44:58.642Z,3.03
2019-02-18T07:45:58.617Z,3.06
2019-02-18T07:46:58.587Z,3.05
2019-02-18T07:47:58.569Z,3.21
2019-02-18T07:48:58.544Z,3.43
2019-02-18T07:49:58.517Z,3.42
2019-02-18T07:50:58.494Z,3.42
2019-02-18T07:51:58.465Z,3.61
2019-02-18T07:52:58.449Z,3.72
2019-02-18T07:53:58.421Z,3.79
2019-02-18T07:54:58.397Z,3.90
2019-02-18T07:55:58.367Z,3.98
2019-02-18T07:56:58.347Z,4.18
2019-02-18T07:57:58.325Z,4.29
2019-02-18T07:58:58.299Z,4.54
2019-02-18T07:59:58.277Z,4.59
2019-02-18T08:00:58.259Z,4.85
2019-02-18T08:01:58.229Z,5.12
2019-02-18T08:02:58.198Z,5.28
2019-02-18T08:03:58.177Z,5.61
2019-02-18T08:04:58.155Z,5.99
2019-02-18T08:05:58.139Z,6.28
2019-02-18T08:06:58.105Z,6.54
2019-02-18T08:07:58.082Z,6.99
2019-02-18T08:08:58.059Z,7.30
2019-02-18T08:09:58.039Z,7.55
2019-02-18T08:10:58.007Z,7.85
2019-02-18T08:11:57.991Z,8.08
2019-02-18T08:12:57.968Z,8.34
2019-02-18T08:13:57.947Z,8.66
2019-02-18T08:14:57.919Z,9.05
2019-02-18T08:15:57.894Z,9.33
2019-02-18T08:16:57.876Z,9.39
2019-02-18T08:17:57.851Z,9.78
2019-02-18T08:18:57.824Z,10.01
2019-02-18T08:19:57.800Z,10.17
2019-02-18T08:20:57.780Z,10.74
2019-02-18T08:21:57.758Z,10.99
2019-02-18T08:22:57.740Z,11.60
2019-02-18T08:24:00.245Z,12.23
2019-02-18T08:24:57.692Z,12.64
2019-02-18T08:25:57.670Z,12.89
2019-02-18T08:26:57.644Z,13.19
2019-02-18T08:27:57.622Z,13.39
2019-02-18T08:28:57.603Z,13.45
2019-02-18T08:29:57.578Z,13.62
2019-02-18T08:30:57.559Z,14.07
2019-02-18T08:31:57.537Z,14.22
2019-02-18T08:32:57.513Z,14.64
2019-02-18T08:33:57.492Z,15.09
2019-02-18T08:34:57.471Z,15.25
2019-02-18T08:35:57.450Z,15.50
2019-02-18T08:36:57.435Z,15.46
2019-02-18T08:37:57.415Z,15.86
2019-02-18T08:38:57.390Z,15.93
2019-02-18T08:39:57.367Z,16.04
2019-02-18T08:40:57.348Z,16.20
2019-02-18T08:41:57.326Z,16.12
2019-02-18T08:42:57.306Z,16.21
2019-02-18T08:43:57.288Z,16.20
2019-02-18T08:44:57.269Z,16.21
2019-02-18T08:45:57.246Z,16.38
2019-02-18T08:46:57.228Z,16.43
2019-02-18T08:47:57.208Z,16.52
2019-02-18T08:48:57.192Z,16.39
2019-02-18T08:49:57.170Z,16.45
2019-02-18T08:50:57.156Z,16.75
2019-02-18T08:51:57.196Z,16.97
2019-02-18T08:52:57.113Z,17.11
2019-02-18T08:53:57.096Z,17.63
2019-02-18T08:54:57.095Z,17.77
2019-02-18T08:55:57.065Z,18.15
2019-02-18T08:56:57.047Z,17.99
2019-02-18T08:57:57.024Z,17.55
2019-02-18T08:58:57.011Z,16.60
2019-02-18T08:59:56.990Z,15.90
2019-02-18T09:01:02.616Z,15.36
2019-02-18T09:01:56.964Z,15.09
2019-02-18T09:02:56.937Z,14.75
2019-02-18T09:03:56.924Z,14.70
2019-02-18T09:04:56.906Z,15.13
2019-02-18T09:05:56.893Z,15.09
2019-02-18T09:06:56.870Z,14.89
2019-02-18T09:07:56.854Z,14.84
2019-02-18T09:08:56.836Z,14.61
2019-02-18T09:09:56.820Z,14.37
2019-02-18T09:10:56.802Z,14.17
2019-02-18T09:11:56.784Z,14.04
2019-02-18T09:12:56.773Z,13.77
2019-02-18T09:13:56.750Z,13.42
2019-02-18T09:14:56.733Z,12.77
2019-02-18T09:16:00.054Z,12.60
2019-02-18T09:16:56.697Z,12.46
2019-02-18T09:17:56.684Z,12.42
2019-02-18T09:18:56.660Z,12.52
2019-02-18T09:19:56.650Z,12.42
2019-02-18T09:20:56.629Z,12.12
2019-02-18T09:21:56.614Z,12.02
2019-02-18T09:22:56.591Z,11.95
2019-02-18T09:23:56.579Z,11.65
2019-02-18T09:24:56.557Z,11.79
2019-02-18T09:25:56.549Z,11.91
2019-02-18T09:26:56.520Z,12.42
2019-02-18T09:27:56.503Z,12.70
2019-02-18T09:28:56.488Z,12.65
2019-02-18T09:29:56.468Z,12.90
2019-02-18T09:30:56.471Z,13.39
2019-02-18T09:31:56.432Z,14.36
2019-02-18T09:32:56.417Z,15.21
2019-02-18T09:33:56.394Z,15.94
2019-02-18T09:35:01.933Z,16.61
2019-02-18T09:35:56.363Z,17.31
2019-02-18T09:36:56.359Z,17.40
2019-02-18T09:37:56.338Z,17.70
2019-02-18T09:38:56.310Z,18.29
2019-02-18T09:39:56.297Z,18.78
2019-02-18T09:40:56.283Z,19.40
2019-02-18T09:41:56.277Z,19.28
2019-02-18T09:42:56.251Z,19.69
2019-02-18T09:43:56.240Z,19.71
2019-02-18T09:44:56.233Z,19.92
2019-02-18T09:45:56.208Z,20.21
2019-02-18T09:46:56.190Z,20.39
2019-02-18T09:47:56.178Z,20.79
2019-02-18T09:48:56.163Z,20.88
2019-02-18T09:49:56.149Z,21.01
2019-02-18T09:50:56.135Z,21.07
2019-02-18T09:51:56.123Z,21.29
2019-02-18T09:52:56.112Z,21.47
2019-02-18T09:53:56.098Z,21.58
2019-02-18T09:54:56.085Z,21.79
2019-02-18T09:55:56.077Z,22.06
2019-02-18T09:56:56.064Z,21.94
2019-02-18T09:57:56.048Z,22.06
2019-02-18T09:58:56.036Z,22.06
2019-02-18T09:59:56.027Z,21.91
2019-02-18T10:00:56.020Z,21.77
2019-02-18T10:01:56.002Z,22.24
2019-02-18T10:02:55.991Z,22.36
2019-02-18T10:03:55.984Z,22.76
2019-02-18T10:04:55.971Z,22.91
2019-02-18T10:05:56.043Z,22.94
2019-02-18T10:06:55.950Z,22.95
2019-02-18T10:07:55.944Z,22.83
2019-02-18T10:08:55.941Z,23.19
2019-02-18T10:09:55.922Z,23.38
2019-02-18T10:10:56.456Z,23.60
2019-02-18T10:11:55.910Z,23.42
2019-02-18T10:12:55.897Z,23.02
2019-02-18T10:13:55.892Z,23.19
2019-02-18T10:14:55.878Z,23.48
2019-02-18T10:15:55.872Z,23.40
2019-02-18T10:16:55.869Z,23.53
2019-02-18T10:17:55.858Z,23.91
2019-02-18T10:18:55.842Z,23.88
2019-02-18T10:19:55.834Z,23.65
2019-02-18T10:20:55.827Z,23.48
2019-02-18T10:21:55.819Z,23.38
2019-02-18T10:22:55.810Z,23.35
2019-02-18T10:23:55.807Z,23.55
2019-02-18T10:24:55.798Z,23.78
2019-02-18T10:25:55.787Z,23.83
2019-02-18T10:26:55.776Z,23.65
2019-02-18T10:27:55.769Z,23.40
2019-02-18T10:28:55.772Z,23.57
2019-02-18T10:29:55.756Z,23.50
2019-02-18T10:30:55.747Z,23.50
2019-02-18T10:31:55.735Z,23.57
2019-02-18T10:32:55.730Z,23.55
2019-02-18T10:33:55.716Z,23.73
2019-02-18T10:34:55.710Z,23.75
2019-02-18T10:35:55.702Z,23.46
2019-02-18T10:36:55.696Z,23.51
2019-02-18T10:37:55.691Z,23.55
2019-02-18T10:38:55.675Z,23.43
2019-02-18T10:39:55.664Z,23.28
2019-02-18T10:41:06.097Z,23.13
2019-02-18T10:41:55.647Z,23.00
2019-02-18T10:42:55.637Z,22.94
2019-02-18T10:43:55.628Z,22.67
2019-02-18T10:44:55.616Z,22.62
2019-02-18T10:45:55.609Z,22.47
2019-02-18T10:46:55.597Z,22.27
2019-02-18T10:47:55.593Z,22.24
2019-02-18T10:48:55.578Z,22.18
2019-02-18T10:49:55.572Z,21.88
2019-02-18T10:50:55.555Z,21.44
2019-02-18T10:51:55.557Z,21.17
2019-02-18T10:52:55.541Z,20.94
2019-02-18T10:53:55.525Z,20.39
2019-02-18T10:54:55.599Z,20.35
2019-02-18T10:55:55.506Z,20.31
2019-02-18T10:56:55.497Z,20.10
2019-02-18T10:57:55.490Z,20.16
2019-02-18T10:58:55.478Z,19.96
2019-02-18T10:59:55.464Z,20.13
2019-02-18T11:00:55.456Z,19.99
2019-02-18T11:01:55.442Z,19.94
2019-02-18T11:02:55.433Z,19.99
2019-02-18T11:03:55.423Z,20.10
2019-02-18T11:04:55.412Z,20.18
2019-02-18T11:05:55.400Z,20.26
2019-02-18T11:06:55.387Z,20.13
2019-02-18T11:07:55.377Z,19.91
2019-02-18T11:08:55.390Z,19.84
2019-02-18T11:09:55.355Z,19.81
2019-02-18T11:10:55.348Z,19.71
2019-02-18T11:11:55.337Z,19.73
2019-02-18T11:12:55.328Z,19.77
2019-02-18T11:13:55.310Z,19.65
2019-02-18T11:14:55.302Z,19.61
2019-02-18T11:15:55.290Z,19.59
2019-02-18T11:16:55.280Z,19.48
2019-02-18T11:17:55.265Z,19.56
2019-02-18T11:18:55.254Z,19.58
2019-02-18T11:19:55.247Z,19.69
2019-02-18T11:20:55.239Z,19.77
2019-02-18T11:21:55.220Z,19.84
2019-02-18T11:22:55.204Z,19.71
2019-02-18T11:23:55.198Z,19.80
2019-02-18T11:24:55.187Z,19.73
2019-02-18T11:25:55.174Z,19.66
2019-02-18T11:26:55.173Z,19.71
2019-02-18T11:27:55.150Z,19.51
2019-02-18T11:28:55.141Z,19.43
2019-02-18T11:29:55.130Z,19.31
2019-02-18T11:30:55.116Z,19.36
2019-02-18T11:31:55.099Z,19.22
2019-02-18T11:32:55.097Z,19.10
2019-02-18T11:33:55.077Z,19.00
2019-02-18T11:34:55.066Z,18.92
2019-02-18T11:35:55.055Z,18.84
2019-02-18T11:36:55.050Z,18.76
2019-02-18T11:37:55.030Z,18.70
2019-02-18T11:38:55.020Z,18.75
2019-02-18T11:39:55.008Z,18.66
2019-02-18T11:40:54.998Z,18.75
2019-02-18T11:41:54.986Z,18.92
2019-02-18T11:42:54.974Z,18.84
2019-02-18T11:43:54.963Z,18.84
2019-02-18T11:44:54.950Z,18.92
2019-02-18T11:45:54.940Z,18.90
2019-02-18T11:46:54.929Z,19.00
2019-02-18T11:47:54.957Z,19.06
2019-02-18T11:48:54.898Z,19.14
2019-02-18T11:49:55.330Z,19.16
2019-02-18T11:50:54.880Z,18.92
2019-02-18T11:51:54.864Z,18.91
2019-02-18T11:52:54.848Z,19.02
2019-02-18T11:53:54.838Z,19.06
2019-02-18T11:54:54.826Z,19.02
2019-02-18T11:55:54.810Z,19.00
2019-02-18T11:56:54.805Z,19.08
2019-02-18T11:57:54.793Z,19.19
2019-02-18T11:58:54.776Z,19.18
2019-02-18T11:59:54.774Z,19.14
2019-02-18T12:00:54.757Z,19.13
2019-02-18T12:01:54.742Z,19.08
2019-02-18T12:03:02.829Z,19.06
2019-02-18T12:03:54.718Z,18.98
2019-02-18T12:04:54.705Z,18.90
2019-02-18T12:05:54.688Z,18.75
2019-02-18T12:06:54.674Z,18.69
2019-02-18T12:07:54.668Z,18.65
2019-02-18T12:08:54.651Z,18.65
2019-02-18T12:09:54.636Z,18.58
2019-02-18T12:10:54.633Z,18.67
2019-02-18T12:11:54.619Z,18.63
2019-02-18T12:12:55.885Z,18.72
2019-02-18T12:13:54.593Z,18.78
2019-02-18T12:14:54.581Z,18.88
2019-02-18T12:15:54.565Z,18.87
2019-02-18T12:16:54.816Z,18.82
2019-02-18T12:17:54.545Z,18.90
2019-02-18T12:18:54.526Z,18.84
2019-02-18T12:19:54.514Z,18.76
2019-02-18T12:20:54.501Z,18.65
2019-02-18T12:21:54.486Z,18.45
2019-02-18T12:22:54.475Z,18.39
2019-02-18T12:23:54.462Z,18.33
2019-02-18T12:24:54.453Z,18.36
2019-02-18T12:25:54.443Z,18.35
2019-02-18T12:26:54.421Z,18.29
2019-02-18T12:27:54.410Z,18.29
2019-02-18T12:28:54.399Z,18.26
2019-02-18T12:29:54.460Z,18.39
2019-02-18T12:30:54.380Z,18.44
2019-02-18T12:31:54.358Z,18.47
2019-02-18T12:32:54.347Z,18.52
2019-02-18T12:33:54.330Z,18.54
2019-02-18T12:34:54.320Z,18.50
2019-02-18T12:35:54.305Z,18.57
2019-02-18T12:36:54.297Z,18.73
2019-02-18T12:37:55.633Z,18.75
2019-02-18T12:38:54.271Z,18.82
2019-02-18T12:39:54.252Z,18.76
2019-02-18T12:40:54.246Z,18.69
2019-02-18T12:41:54.225Z,18.63
2019-02-18T12:42:54.254Z,18.60
2019-02-18T12:43:54.203Z,18.57
2019-02-18T12:44:54.185Z,18.62
2019-02-18T12:45:54.178Z,18.50
2019-02-18T12:46:54.153Z,18.67
2019-02-18T12:47:54.145Z,18.62
2019-02-18T12:48:54.135Z,18.58
2019-02-18T12:49:54.120Z,18.44
2019-02-18T12:50:54.105Z,18.47
2019-02-18T12:51:54.089Z,18.47
2019-02-18T12:52:54.072Z,18.30
2019-02-18T12:54:04.559Z,18.33
2019-02-18T12:54:54.104Z,18.36
2019-02-18T12:55:54.032Z,18.29
2019-02-18T12:56:54.020Z,18.25
2019-02-18T12:57:54.005Z,18.36
2019-02-18T12:58:54.854Z,18.27
2019-02-18T12:59:54.133Z,18.21
2019-02-18T13:00:53.964Z,18.12
2019-02-18T13:01:53.949Z,18.05
2019-02-18T13:02:53.938Z,18.11
2019-02-18T13:03:53.915Z,18.11
2019-02-18T13:04:53.903Z,18.20
2019-02-18T13:05:53.891Z,18.14
2019-02-18T13:06:53.877Z,18.05
2019-02-18T13:07:53.861Z,18.00
2019-02-18T13:08:53.853Z,17.95